Time;durP1;ratioP1;P1;durP2;ratioP2;P2;SDS_P1;SDS_P2;PMS_P1;PMS_P2;Temp;Humidity;BMP_temperature;BMP_pressure;BME280_temperature;BME280_humidity;BME280_pressure;Samples;Min_cycle;Max_cycle;Signal;HPM_P1;HPM_P2
2021/11/03 00:01:55;;;;;;;;;;;;;;;30.08;64.52;100985.69;5006149;28;66727;-38
2021/11/03 00:04:30;;;;;;;;;;;;;;;29.99;65.04;100992.38;5009620;28;69673;-39
2021/11/03 00:07:00;;;;;;;;;;;;;;;29.93;65.17;100993.22;5005662;28;65562;-39
2021/11/03 00:09:31;;;;;;;;;;;;;;;29.89;65.60;100989.25;5006342;28;70179;-39
2021/11/03 00:12:03;;;;;;;;;;;;;;;29.90;65.14;100999.06;5008387;28;65807;-37
2021/11/03 00:14:33;;;;;;;;;;;;;;;29.90;64.91;101004.47;5008824;28;70172;-38
2021/11/03 00:17:04;;;;;;;;;;;;;;;29.83;65.37;100999.88;4998400;28;66382;-38
2021/11/03 00:19:34;;;;;;;;;;;;;;;29.88;66.41;101003.84;5010280;28;69757;-37
2021/11/03 00:22:12;;;;;;;;;;;;;;;29.72;66.48;100997.81;5001934;28;66090;-38
2021/11/03 00:24:43;;;;;;;;;;;;;;;29.71;66.16;101004.25;4994966;28;70241;-38
2021/11/03 00:27:26;;;;;;;;;;;;;;;29.73;66.14;101004.06;4996052;28;65682;-37
2021/11/03 00:30:23;;;;;;;;;;;;;;;29.75;65.82;101000.09;4997837;28;69323;-37
2021/11/03 00:33:27;;;;;;;;;;;;;;;29.80;65.67;101000.28;5008925;28;65759;-37
2021/11/03 00:36:16;;;;;;;;;;;;;;;29.86;65.45;101005.91;5013238;28;70599;-37
2021/11/03 00:39:06;;;;;;;;;;;;;;;29.89;65.24;101014.41;5017259;28;65447;-36
2021/11/03 00:42:01;;;;;;;;;;;;;;;29.92;65.17;101018.59;5017436;28;70098;-36
2021/11/03 00:44:45;;;;;;;;;;;;;;;29.95;64.15;101015.44;4997897;28;64507;-36
2021/11/03 00:47:33;;;;;;;;;;;;;;;29.98;64.44;101004.25;4992726;28;70032;-37
2021/11/03 00:50:20;;;;;;;;;;;;;;;30.01;64.13;101022.75;4988089;28;67091;-37
2021/11/03 00:53:07;;;;;;;;;;;;;;;30.02;64.15;101014.41;5015354;28;70356;-37
2021/11/03 00:55:56;;;;;;;;;;;;;;;30.04;63.42;101022.31;4987324;28;66081;-38
2021/11/03 00:58:43;;;;;;;;;;;;;;;30.07;63.80;101030.00;5023388;28;70387;-37
2021/11/03 01:01:49;;;;;;;;;;;;;;;30.09;63.61;101030.63;4998985;28;65718;-37
2021/11/03 01:04:40;;;;;;;;;;;;;;;30.12;63.13;101034.78;5014121;28;70113;-36
2021/11/03 01:08:14;;;;;;;;;;;;;;;30.14;63.24;101033.50;4986234;28;65245;-38
2021/11/03 01:11:08;;;;;;;;;;;;;;;30.16;62.86;101036.84;4956753;28;69877;-37
2021/11/03 01:13:56;;;;;;;;;;;;;;;30.17;62.75;101038.53;4985634;28;66545;-37
2021/11/03 01:16:47;;;;;;;;;;;;;;;30.21;62.59;101045.16;4960242;28;69895;-37
2021/11/03 01:19:59;;;;;;;;;;;;;;;30.22;62.92;101049.56;4974415;28;66308;-37
2021/11/03 01:22:48;;;;;;;;;;;;;;;30.24;62.49;101049.34;4962463;28;69657;-36
2021/11/03 01:26:14;;;;;;;;;;;;;;;30.25;62.87;101045.59;4975964;28;65768;-37
2021/11/03 01:29:07;;;;;;;;;;;;;;;30.27;62.24;101052.47;4991245;28;70093;-38
2021/11/03 01:32:08;;;;;;;;;;;;;;;30.30;62.32;101053.09;4992109;28;65199;-36
2021/11/03 01:35:05;;;;;;;;;;;;;;;30.33;62.34;101055.38;4987155;28;69252;-36
2021/11/03 01:37:56;;;;;;;;;;;;;;;30.35;62.76;101056.00;4991422;28;65267;-36
2021/11/03 01:40:52;;;;;;;;;;;;;;;30.37;62.10;101059.28;4964124;28;69950;-36
2021/11/03 01:43:44;;;;;;;;;;;;;;;30.40;62.27;101064.31;4971391;28;65476;-37
2021/11/03 01:47:46;;;;;;;;;;;;;;;30.43;62.45;101069.31;5007260;28;70290;-36
2021/11/03 01:50:59;;;;;;;;;;;;;;;30.45;61.97;101067.19;4993380;28;65181;-37
2021/11/03 01:53:49;;;;;;;;;;;;;;;30.47;61.93;101071.34;5006980;28;70345;-37
2021/11/03 01:56:42;;;;;;;;;;;;;;;30.49;61.80;101057.63;4978508;28;65584;-37
2021/11/03 01:59:48;;;;;;;;;;;;;;;30.51;62.20;101058.25;5004034;28;69553;-37
2021/11/03 02:03:16;;;;;;;;;;;;;;;30.55;62.16;101064.88;5000143;28;66548;-37
2021/11/03 02:06:09;;;;;;;;;;;;;;;30.57;62.10;101062.78;4980548;28;69274;-37
2021/11/03 02:09:00;;;;;;;;;;;;;;;30.60;62.00;101062.38;5007287;28;66627;-36
2021/11/03 02:11:55;;;;;;;;;;;;;;;30.62;61.33;101052.16;5009254;28;70813;-37
2021/11/03 02:15:14;;;;;;;;;;;;;;;30.65;61.26;101061.72;5005642;28;66332;-36
2021/11/03 02:18:02;;;;;;;;;;;;;;;30.67;61.60;101060.47;4992303;28;69354;-37
2021/11/03 02:21:13;;;;;;;;;;;;;;;30.71;61.64;101067.09;5007902;28;65281;-37
2021/11/03 02:24:22;;;;;;;;;;;;;;;30.73;61.37;101058.78;4991283;28;69811;-36
2021/11/03 02:27:11;;;;;;;;;;;;;;;30.75;61.49;101055.84;5008637;28;66112;-37
2021/11/03 02:29:57;;;;;;;;;;;;;;;30.77;60.86;101065.41;4977604;28;70059;-37
2021/11/03 02:33:05;;;;;;;;;;;;;;;30.80;60.73;101066.91;4976032;28;66238;-37
2021/11/03 02:35:59;;;;;;;;;;;;;;;30.82;60.86;101056.69;5001179;28;70457;-36
2021/11/03 02:38:59;;;;;;;;;;;;;;;30.84;61.21;101054.56;5021192;28;66568;-37
2021/11/03 02:41:57;;;;;;;;;;;;;;;30.87;60.77;101054.13;5002061;28;69188;-37
2021/11/03 02:44:50;;;;;;;;;;;;;;;30.90;60.95;101059.16;5008767;28;66234;-37
2021/11/03 02:48:20;;;;;;;;;;;;;;;30.90;60.80;101046.44;5025711;27;43737;-38
2021/11/03 02:51:20;;;;;;;;;;;;;;;30.96;60.74;101047.44;5015060;27;69449;-37
2021/11/03 02:54:07;;;;;;;;;;;;;;;30.97;60.82;101043.66;5017562;27;65439;-36
2021/11/03 02:57:07;;;;;;;;;;;;;;;31.01;60.61;101039.50;5019249;27;69246;-36
2021/11/03 02:59:58;;;;;;;;;;;;;;;31.03;60.73;101042.78;5133733;27;66862;-37
2021/11/03 03:02:46;;;;;;;;;;;;;;;31.04;60.61;101044.47;5018824;27;70052;-36
2021/11/03 03:05:37;;;;;;;;;;;;;;;31.08;60.51;101044.84;5026628;27;64928;-36
2021/11/03 03:08:22;;;;;;;;;;;;;;;31.09;60.35;101030.25;5013775;27;70694;-36
2021/11/03 03:11:07;;;;;;;;;;;;;;;31.13;60.25;101043.16;5060026;27;66529;-36
2021/11/03 03:13:45;;;;;;;;;;;;;;;31.15;60.01;101034.81;5055947;27;70536;-36
2021/11/03 03:16:35;;;;;;;;;;;;;;;31.17;60.01;101033.56;5067516;27;66496;-36
2021/11/03 03:19:24;;;;;;;;;;;;;;;31.21;60.05;101038.53;5043097;27;70035;-35
2021/11/03 03:21:57;;;;;;;;;;;;;;;31.24;60.15;101027.25;5058522;27;65612;-37
2021/11/03 03:24:33;;;;;;;;;;;;;;;31.27;60.23;101037.66;5053803;27;69895;-35
2021/11/03 03:27:19;;;;;;;;;;;;;;;31.28;59.76;101029.28;5088500;27;65524;-36
2021/11/03 03:29:57;;;;;;;;;;;;;;;31.31;59.81;101028.03;5073466;27;69925;-37
2021/11/03 03:32:40;;;;;;;;;;;;;;;31.35;59.57;101026.56;5071305;27;65508;-36
2021/11/03 03:35:23;;;;;;;;;;;;;;;31.37;59.94;101022.59;5044672;27;69131;-36
2021/11/03 03:37:54;;;;;;;;;;;;;;;31.40;59.44;101015.91;5073541;27;65875;-37
2021/11/03 03:40:38;;;;;;;;;;;;;;;31.43;59.75;101020.88;5060910;27;69510;-36
2021/11/03 03:43:21;;;;;;;;;;;;;;;31.46;59.73;101015.03;5066946;27;64964;-36
2021/11/03 03:45:57;;;;;;;;;;;;;;;31.48;59.39;101009.34;5071602;27;70215;-36
2021/11/03 03:48:33;;;;;;;;;;;;;;;31.52;59.37;101000.56;5069800;27;66006;-35
2021/11/03 03:51:10;;;;;;;;;;;;;;;31.55;59.24;101002.84;5089079;27;70197;-37
2021/11/03 03:53:46;;;;;;;;;;;;;;;31.58;59.26;101001.56;5069030;27;66277;-36
2021/11/03 03:56:18;;;;;;;;;;;;;;;31.61;59.38;100991.09;5062263;27;69948;-36
2021/11/03 03:58:54;;;;;;;;;;;;;;;31.64;58.95;100984.41;5059028;28;66597;-36
2021/11/03 04:01:30;;;;;;;;;;;;;;;31.67;59.25;100983.13;5026508;28;68326;-36
2021/11/03 04:04:09;;;;;;;;;;;;;;;31.72;59.35;100983.28;4993986;27;65720;-36
2021/11/03 04:06:45;;;;;;;;;;;;;;;31.74;59.53;100973.06;4989770;27;70429;-36
2021/11/03 04:09:16;;;;;;;;;;;;;;;31.76;58.90;100973.63;4992859;27;66010;-36
2021/11/03 04:11:48;;;;;;;;;;;;;;;31.79;59.22;100968.63;4994476;27;70061;-37
2021/11/03 04:14:27;;;;;;;;;;;;;;;31.80;59.46;100955.88;4980144;27;66628;-35
2021/11/03 04:16:58;;;;;;;;;;;;;;;31.84;59.30;100967.91;4993525;27;69893;-36
2021/11/03 04:19:42;;;;;;;;;;;;;;;31.86;58.92;100954.97;4977182;28;66220;-36
2021/11/03 04:22:13;;;;;;;;;;;;;;;31.90;58.93;100956.19;4972654;27;68913;-35
2021/11/03 04:24:45;;;;;;;;;;;;;;;31.92;59.06;100948.66;4994266;27;65635;-37
2021/11/03 04:27:20;;;;;;;;;;;;;;;31.94;58.69;100935.72;4991603;27;70041;-36
2021/11/03 04:29:51;;;;;;;;;;;;;;;31.96;58.72;100927.38;4998473;27;66125;-37
2021/11/03 04:32:24;;;;;;;;;;;;;;;31.98;58.50;100920.66;5108762;27;70168;-37
2021/11/03 04:34:59;;;;;;;;;;;;;;;31.99;58.35;100911.44;4978256;28;66641;-36
2021/11/03 04:37:33;;;;;;;;;;;;;;;32.02;58.41;100910.16;4995795;27;70047;-36
2021/11/03 04:40:07;;;;;;;;;;;;;;;32.03;58.29;100907.22;4992733;27;66126;-36
2021/11/03 04:42:42;;;;;;;;;;;;;;;32.05;58.31;100905.09;4994005;27;69982;-35
2021/11/03 04:45:14;;;;;;;;;;;;;;;32.07;58.03;100895.91;5090059;27;66273;-36
2021/11/03 04:47:46;;;;;;;;;;;;;;;32.09;58.24;100885.66;4998255;27;70047;-36
2021/11/03 04:50:21;;;;;;;;;;;;;;;32.09;58.42;100889.19;4993691;27;67073;-35
2021/11/03 04:52:55;;;;;;;;;;;;;;;32.12;58.33;100887.91;4976548;28;68202;-35
2021/11/03 04:55:31;;;;;;;;;;;;;;;32.14;58.48;100885.81;5074447;27;66150;-35
2021/11/03 04:58:04;;;;;;;;;;;;;;;32.16;57.87;100878.28;4992100;27;70201;-35
2021/11/03 05:00:35;;;;;;;;;;;;;;;32.18;58.00;100873.41;4991802;27;65482;-36
2021/11/03 05:03:06;;;;;;;;;;;;;;;32.20;58.09;100872.13;4991938;27;69265;-36
2021/11/03 05:05:37;;;;;;;;;;;;;;;32.23;58.03;100860.00;4993892;27;65500;-36
2021/11/03 05:08:11;;;;;;;;;;;;;;;32.25;58.23;100866.03;4991008;27;70276;-37
2021/11/03 05:10:42;;;;;;;;;;;;;;;32.27;58.13;100863.91;4998552;27;66087;-36
2021/11/03 05:13:14;;;;;;;;;;;;;;;32.28;57.88;100860.94;5000857;27;69439;-36
2021/11/03 05:15:51;;;;;;;;;;;;;;;32.31;58.02;100848.81;4984749;28;66110;-36
2021/11/03 05:18:24;;;;;;;;;;;;;;;32.33;58.27;100846.69;5008380;27;69090;-35
2021/11/03 05:20:56;;;;;;;;;;;;;;;32.35;58.11;100844.59;5004917;27;66751;-36
2021/11/03 05:23:27;;;;;;;;;;;;;;;32.36;58.05;100846.22;5007915;27;70390;-36
2021/11/03 05:25:57;;;;;;;;;;;;;;;32.38;57.73;100848.72;5002418;27;66313;-36
2021/11/03 05:28:28;;;;;;;;;;;;;;;32.40;57.97;100850.16;5009909;27;70697;-36
2021/11/03 05:30:59;;;;;;;;;;;;;;;32.41;57.78;100843.66;5003680;27;65440;-36
2021/11/03 05:33:29;;;;;;;;;;;;;;;32.45;58.03;100847.56;5002258;27;70629;-36
2021/11/03 05:36:00;;;;;;;;;;;;;;;32.46;58.03;100841.13;4992621;27;67278;-36
2021/11/03 05:38:32;;;;;;;;;;;;;;;32.48;57.76;100838.16;4996775;27;69464;-37
2021/11/03 05:41:03;;;;;;;;;;;;;;;32.49;57.86;100835.22;5034268;27;65529;-36
2021/11/03 05:43:34;;;;;;;;;;;;;;;32.49;57.75;100824.34;5003553;27;70576;-37
2021/11/03 05:46:05;;;;;;;;;;;;;;;32.51;57.88;100815.97;4999813;27;66572;-36
2021/11/03 05:48:39;;;;;;;;;;;;;;;32.53;57.33;100808.41;4975685;27;70251;-36
2021/11/03 05:51:12;;;;;;;;;;;;;;;32.56;57.59;100812.56;4987631;27;66684;-36
2021/11/03 05:53:42;;;;;;;;;;;;;;;32.58;57.56;100805.00;4974969;28;70837;-35
2021/11/03 05:56:13;;;;;;;;;;;;;;;32.60;57.63;100797.47;4993551;27;67026;-35
2021/11/03 05:58:44;;;;;;;;;;;;;;;32.63;57.13;100797.00;4993172;27;70190;-36
2021/11/03 06:01:15;;;;;;;;;;;;;;;32.65;57.53;100786.69;4994690;27;65789;-36
2021/11/03 06:03:46;;;;;;;;;;;;;;;32.67;57.48;100781.88;4998536;27;70504;-37
2021/11/03 06:06:25;;;;;;;;;;;;;;;32.69;57.36;100782.47;4994152;27;65432;-37
2021/11/03 06:08:56;;;;;;;;;;;;;;;32.72;57.31;100779.28;4991313;27;69269;-37
2021/11/03 06:11:29;;;;;;;;;;;;;;;32.71;57.12;100769.50;4999413;27;65858;-37
2021/11/03 06:14:02;;;;;;;;;;;;;;;32.74;57.39;100765.47;4993702;27;69279;-36
2021/11/03 06:16:32;;;;;;;;;;;;;;;32.77;57.25;100763.09;4989715;27;65731;-36
2021/11/03 06:19:04;;;;;;;;;;;;;;;32.80;57.00;100754.47;4992684;27;70042;-36
2021/11/03 06:21:36;;;;;;;;;;;;;;;32.83;57.22;100745.84;5003971;27;66302;-36
2021/11/03 06:24:07;;;;;;;;;;;;;;;32.85;57.18;100741.03;4989850;27;70070;-37
2021/11/03 06:26:38;;;;;;;;;;;;;;;32.88;57.33;100732.41;4979373;28;66189;-36
2021/11/03 06:29:10;;;;;;;;;;;;;;;32.90;56.99;100727.56;4987403;27;70229;-36
2021/11/03 06:31:49;;;;;;;;;;;;;;;32.94;56.99;100723.28;4990748;27;66587;-36
2021/11/03 06:34:19;;;;;;;;;;;;;;;32.97;56.85;100715.72;4992321;27;69982;-36
2021/11/03 06:36:54;;;;;;;;;;;;;;;32.98;56.84;100720.91;4987049;27;66626;-36
2021/11/03 06:39:27;;;;;;;;;;;;;;;32.99;56.91;100714.44;4991998;27;70407;-36
2021/11/03 06:41:59;;;;;;;;;;;;;;;33.04;56.86;100716.44;4986193;27;65928;-37
2021/11/03 06:44:34;;;;;;;;;;;;;;;33.05;56.86;100702.63;4976812;28;69983;-37
2021/11/03 06:47:08;;;;;;;;;;;;;;;33.07;56.78;100694.22;5000374;27;66854;-36
2021/11/03 06:49:43;;;;;;;;;;;;;;;33.11;56.80;100689.97;4975458;28;70370;-36
2021/11/03 06:52:26;;;;;;;;;;;;;;;33.10;56.72;100672.03;4988961;27;66367;-36
2021/11/03 06:55:00;;;;;;;;;;;;;;;33.15;56.57;100674.81;5071969;27;69794;-36
2021/11/03 06:57:31;;;;;;;;;;;;;;;33.15;56.85;100674.81;5031570;27;66187;-36
2021/11/03 07:00:12;;;;;;;;;;;;;;;33.18;56.64;100668.91;4993169;27;70304;-36
2021/11/03 07:02:58;;;;;;;;;;;;;;;33.20;56.60;100666.78;4994038;27;67001;-37
2021/11/03 07:06:05;;;;;;;;;;;;;;;33.21;56.62;100663.00;4986862;27;70320;-36
2021/11/03 07:08:47;;;;;;;;;;;;;;;33.22;56.93;100659.22;4996408;27;66477;-36
2021/11/03 07:11:23;;;;;;;;;;;;;;;33.24;56.52;100657.09;5090046;27;70044;-36
2021/11/03 07:14:13;;;;;;;;;;;;;;;33.26;56.62;100657.66;4981496;27;66786;-36
2021/11/03 07:17:02;;;;;;;;;;;;;;;33.28;56.37;100651.97;4993476;27;69689;-36
2021/11/03 07:19:36;;;;;;;;;;;;;;;33.29;56.53;100651.75;4997593;27;66328;-37
2021/11/03 07:22:20;;;;;;;;;;;;;;;33.28;56.85;100641.09;4993391;27;69545;-36
2021/11/03 07:25:12;;;;;;;;;;;;;;;33.32;56.52;100653.97;4994027;27;66689;-37
2021/11/03 07:27:58;;;;;;;;;;;;;;;33.33;56.47;100650.19;5063158;27;70262;-36
2021/11/03 07:30:54;;;;;;;;;;;;;;;33.33;56.37;100644.75;4984963;27;66677;-35
2021/11/03 07:33:38;;;;;;;;;;;;;;;33.35;56.52;100644.53;5007663;27;69967;-36
2021/11/03 07:36:15;;;;;;;;;;;;;;;33.35;56.45;100642.63;4987738;27;66546;-37
2021/11/03 07:38:59;;;;;;;;;;;;;;;33.36;56.73;100627.94;4988453;27;70219;-36
2021/11/03 07:41:34;;;;;;;;;;;;;;;33.38;56.44;100633.97;4998538;27;65701;-36
2021/11/03 07:44:12;;;;;;;;;;;;;;;33.38;56.47;100630.44;4995276;27;70996;-36
2021/11/03 07:47:05;;;;;;;;;;;;;;;33.39;56.22;100626.63;4987224;27;65688;-36
2021/11/03 07:50:01;;;;;;;;;;;;;;;33.41;56.33;100624.50;4986861;27;69037;-36
2021/11/03 07:52:46;;;;;;;;;;;;;;;33.41;56.66;100623.69;4992710;27;66407;-37
2021/11/03 07:55:31;;;;;;;;;;;;;;;33.42;56.34;100636.19;5061335;27;69543;-36
2021/11/03 07:58:23;;;;;;;;;;;;;;;33.43;56.25;100632.41;4994366;27;65536;-36
2021/11/03 08:00:56;;;;;;;;;;;;;;;33.44;56.56;100634.06;4993016;27;70226;-36
2021/11/03 08:03:29;;;;;;;;;;;;;;;33.43;56.09;100633.22;5090266;27;65761;-36
2021/11/03 08:06:15;;;;;;;;;;;;;;;33.45;56.18;100633.81;4992353;27;69841;-36
2021/11/03 08:09:04;;;;;;;;;;;;;;;33.46;56.32;100624.59;4999591;27;66596;-37
2021/11/03 08:11:46;;;;;;;;;;;;;;;33.47;56.21;100628.16;5096200;27;69455;-36
2021/11/03 08:14:33;;;;;;;;;;;;;;;33.46;56.43;100626.47;4983848;27;64450;-37
2021/11/03 08:17:26;;;;;;;;;;;;;;;33.47;56.38;100622.72;4990116;27;71930;-36
2021/11/03 08:20:00;;;;;;;;;;;;;;;33.47;55.89;100617.28;4991766;27;66905;-36
2021/11/03 08:22:40;;;;;;;;;;;;;;;33.44;56.32;100617.75;4993728;27;70570;-36
2021/11/03 08:25:26;;;;;;;;;;;;;;;33.47;56.27;100618.09;4996512;27;66074;-36
2021/11/03 08:28:04;;;;;;;;;;;;;;;33.48;56.24;100608.03;4988839;27;69458;-37
2021/11/03 08:30:54;;;;;;;;;;;;;;;33.47;56.02;100617.28;4999492;27;65487;-40
2021/11/03 08:33:28;;;;;;;;;;;;;;;33.48;56.26;100608.03;4988444;27;70331;-36
2021/11/03 08:36:10;;;;;;;;;;;;;;;33.48;56.30;100610.75;4979798;27;65567;-36
2021/11/03 08:38:59;;;;;;;;;;;;;;;33.47;56.14;100612.66;4984240;27;70111;-36
2021/11/03 08:41:42;;;;;;;;;;;;;;;33.48;56.18;100613.47;4994453;27;66302;-34
2021/11/03 08:44:15;;;;;;;;;;;;;;;33.48;56.30;100618.91;4992979;27;70201;-35
2021/11/03 08:46:46;;;;;;;;;;;;;;;33.47;56.42;100615.38;5074575;27;65867;-35
2021/11/03 08:49:23;;;;;;;;;;;;;;;33.47;56.25;100615.38;4982382;27;70079;-36
2021/11/03 08:51:56;;;;;;;;;;;;;;;33.46;56.45;100621.03;4994382;27;65658;-36
2021/11/03 08:54:40;;;;;;;;;;;;;;;33.44;56.61;100621.28;4986513;27;69536;-36
2021/11/03 08:57:25;;;;;;;;;;;;;;;33.46;56.49;100621.03;4981882;27;66014;-36
2021/11/03 08:59:58;;;;;;;;;;;;;;;33.46;56.20;100627.31;4987283;27;69760;-36
2021/11/03 09:02:33;;;;;;;;;;;;;;;33.45;56.24;100624.84;4988227;27;67111;-37
2021/11/03 09:05:05;;;;;;;;;;;;;;;33.45;56.58;100630.28;4987692;27;69397;-37
2021/11/03 09:07:48;;;;;;;;;;;;;;;33.44;56.64;100639.50;4980729;28;66259;-37
2021/11/03 09:10:19;;;;;;;;;;;;;;;33.44;56.40;100639.50;4990336;27;70238;-36
2021/11/03 09:13:05;;;;;;;;;;;;;;;33.42;56.40;100641.63;4998770;27;66274;-35
2021/11/03 09:15:37;;;;;;;;;;;;;;;33.43;56.76;100643.28;4998733;27;70215;-36
2021/11/03 09:18:13;;;;;;;;;;;;;;;33.42;56.64;100644.34;5009764;27;65559;-36
2021/11/03 09:20:50;;;;;;;;;;;;;;;33.42;56.71;100641.63;4993636;27;70263;-36
2021/11/03 09:23:25;;;;;;;;;;;;;;;33.41;56.62;100646.25;5008413;27;66462;-37
2021/11/03 09:25:57;;;;;;;;;;;;;;;33.40;56.53;100643.78;4998535;27;71013;-36
2021/11/03 09:28:39;;;;;;;;;;;;;;;33.40;56.57;100649.22;5007418;27;65581;-36
2021/11/03 09:31:14;;;;;;;;;;;;;;;33.38;56.52;100646.75;4998134;27;70193;-36
2021/11/03 09:33:46;;;;;;;;;;;;;;;33.36;56.67;100638.81;4996570;27;65792;-35
2021/11/03 09:36:18;;;;;;;;;;;;;;;33.37;56.78;100656.78;4991849;27;70179;-35
2021/11/03 09:38:50;;;;;;;;;;;;;;;33.35;56.65;100658.94;4993465;27;66165;-36
2021/11/03 09:41:31;;;;;;;;;;;;;;;33.35;56.85;100656.22;5057550;27;70181;-36
2021/11/03 09:44:14;;;;;;;;;;;;;;;33.34;56.66;100662.69;4992185;27;65537;-36
2021/11/03 09:46:57;;;;;;;;;;;;;;;33.32;56.58;100656.69;4991241;27;69425;-36
2021/11/03 09:49:29;;;;;;;;;;;;;;;33.33;56.92;100661.06;4993756;27;66404;-37
2021/11/03 09:52:22;;;;;;;;;;;;;;;33.32;56.76;100664.84;4991628;27;70237;-37
2021/11/03 09:55:24;;;;;;;;;;;;;;;33.32;56.91;100681.16;4999597;27;65726;-36
2021/11/03 09:58:26;;;;;;;;;;;;;;;33.29;56.95;100681.66;5006489;27;70157;-36
2021/11/03 10:01:42;;;;;;;;;;;;;;;33.30;56.98;100694.16;4983247;27;66030;-36
2021/11/03 10:04:23;;;;;;;;;;;;;;;33.28;56.90;100701.72;4979586;27;69740;-35
2021/11/03 10:07:16;;;;;;;;;;;;;;;33.28;56.96;100707.16;4991635;27;66026;-35
2021/11/03 10:10:10;;;;;;;;;;;;;;;33.26;56.88;100706.56;4973828;27;69924;-36
2021/11/03 10:12:40;;;;;;;;;;;;;;;33.25;57.19;100718.53;4994316;27;66493;-35
2021/11/03 10:15:20;;;;;;;;;;;;;;;33.25;57.04;100725.88;4987838;27;71700;-36
2021/11/03 10:18:14;;;;;;;;;;;;;;;33.25;57.02;100726.69;4983133;27;65608;-36
2021/11/03 10:21:05;;;;;;;;;;;;;;;33.24;57.35;100738.63;4975981;27;69161;-37
2021/11/03 10:23:36;;;;;;;;;;;;;;;33.24;57.57;100735.91;4976863;27;65855;-36
2021/11/03 10:26:11;;;;;;;;;;;;;;;33.21;57.60;100740.97;4975876;27;69168;-37
2021/11/03 10:28:51;;;;;;;;;;;;;;;33.21;58.13;100744.56;4984324;27;66402;-36
2021/11/03 10:31:29;;;;;;;;;;;;;;;33.14;58.21;100735.69;4961464;27;69151;-37
2021/11/03 10:34:03;;;;;;;;;;;;;;;33.20;58.46;100753.75;4980444;27;66905;-36
2021/11/03 10:36:45;;;;;;;;;;;;;;;33.19;58.23;100757.56;4991385;27;69429;-37
2021/11/03 10:39:17;;;;;;;;;;;;;;;33.12;58.89;100756.84;4983882;27;65821;-36
2021/11/03 10:41:58;;;;;;;;;;;;;;;33.19;59.46;100768.41;4988195;27;70187;-36
2021/11/03 10:44:30;;;;;;;;;;;;;;;33.18;59.58;100769.47;4982674;27;64781;-36
2021/11/03 10:47:12;;;;;;;;;;;;;;;33.19;59.69;100781.19;4983432;27;69281;-36
2021/11/03 10:49:54;;;;;;;;;;;;;;;33.18;59.96;100788.50;4974302;27;67194;-36
2021/11/03 10:52:42;;;;;;;;;;;;;;;33.18;60.16;100793.09;4982854;27;70306;-36
2021/11/03 10:55:14;;;;;;;;;;;;;;;33.16;60.27;100796.09;4986671;27;66731;-37
2021/11/03 10:57:46;;;;;;;;;;;;;;;33.09;60.35;100787.22;4991027;27;69690;-36
2021/11/03 11:00:25;;;;;;;;;;;;;;;33.15;60.07;100797.13;4992934;27;66789;-37
2021/11/03 11:03:11;;;;;;;;;;;;;;;33.15;60.21;100810.72;4988291;27;69639;-36
2021/11/03 11:05:52;;;;;;;;;;;;;;;33.15;60.51;100810.72;4987042;27;67163;-36
2021/11/03 11:08:25;;;;;;;;;;;;;;;33.12;60.31;100811.19;4995548;27;70395;-37
2021/11/03 11:11:02;;;;;;;;;;;;;;;33.13;60.80;100807.44;4985430;27;65550;-36
2021/11/03 11:13:41;;;;;;;;;;;;;;;33.12;61.21;100811.19;5009633;27;68504;-36
2021/11/03 11:16:14;;;;;;;;;;;;;;;33.14;61.26;100811.78;4981702;27;66652;-36
2021/11/03 11:18:57;;;;;;;;;;;;;;;33.12;61.60;100805.75;4984805;27;70492;-37
2021/11/03 11:21:36;;;;;;;;;;;;;;;33.10;62.15;100813.34;4989683;27;65115;-36
2021/11/03 11:24:22;;;;;;;;;;;;;;;33.09;62.11;100817.94;4989959;27;70397;-36
2021/11/03 11:27:06;;;;;;;;;;;;;;;33.09;62.12;100823.38;4991216;27;67310;-36
2021/11/03 11:29:50;;;;;;;;;;;;;;;33.07;62.23;100820.06;4962223;28;69415;-37
2021/11/03 11:32:30;;;;;;;;;;;;;;;33.05;62.32;100827.63;4982637;27;66417;-36
2021/11/03 11:35:33;;;;;;;;;;;;;;;33.06;62.60;100839.31;4986797;27;70403;-36
2021/11/03 11:38:21;;;;;;;;;;;;;;;33.04;62.73;100836.00;4988438;27;65864;-35
2021/11/03 11:41:05;;;;;;;;;;;;;;;33.04;62.56;100855.03;4990431;28;69663;-36
2021/11/03 11:43:42;;;;;;;;;;;;;;;33.04;62.79;100863.19;4991482;27;66310;-37
2021/11/03 11:46:27;;;;;;;;;;;;;;;33.01;63.04;100867.19;4987192;27;71460;-38
2021/11/03 11:49:04;;;;;;;;;;;;;;;33.00;62.83;100870.16;4988951;27;66584;-34
2021/11/03 11:51:44;;;;;;;;;;;;;;;32.99;63.09;100876.63;4993276;27;70020;-36
2021/11/03 11:54:41;;;;;;;;;;;;;;;32.98;63.14;100883.13;4984082;27;65559;-37
2021/11/03 11:57:24;;;;;;;;;;;;;;;32.92;63.07;100877.56;4987251;27;70404;-37
2021/11/03 12:00:02;;;;;;;;;;;;;;;32.93;63.18;100884.66;4990297;27;66080;-37
2021/11/03 12:02:51;;;;;;;;;;;;;;;32.93;63.22;100895.53;4992266;27;69977;-36
2021/11/03 12:05:56;;;;;;;;;;;;;;;32.91;63.26;100889.50;4998224;27;66716;-37
2021/11/03 12:08:58;;;;;;;;;;;;;;;32.89;63.20;100888.06;4998092;27;69936;-37
2021/11/03 12:11:58;;;;;;;;;;;;;;;33.21;62.40;100901.34;4990276;27;66533;-37
2021/11/03 12:14:54;;;;;;;;;;;;;;;33.11;61.20;100912.84;5000504;27;71066;-37
2021/11/03 12:17:41;;;;;;;;;;;;;;;32.83;60.25;100917.00;4979829;27;66087;-37
2021/11/03 12:20:25;;;;;;;;;;;;;;;32.54;59.45;100923.28;4993136;27;69723;-36
2021/11/03 12:23:27;;;;;;;;;;;;;;;32.31;58.85;100930.25;4982293;27;65198;-37
2021/11/03 12:26:26;;;;;;;;;;;;;;;32.09;58.18;100943.47;4985958;28;70575;-37
2021/11/03 12:29:22;;;;;;;;;;;;;;;31.95;57.04;100944.69;4988206;27;65846;-37
2021/11/03 12:32:01;;;;;;;;;;;;;;;31.85;57.20;100953.31;4987566;27;70207;-38
2021/11/03 12:34:41;;;;;;;;;;;;;;;31.77;56.31;100957.16;4982389;27;66166;-37
2021/11/03 12:37:27;;;;;;;;;;;;;;;31.64;56.01;100948.31;4980472;27;69655;-37
2021/11/03 12:40:03;;;;;;;;;;;;;;;31.59;55.42;100955.25;4976903;27;64895;-37
2021/11/03 12:42:46;;;;;;;;;;;;;;;31.47;55.58;100951.59;4980019;27;69535;-36
2021/11/03 12:45:36;;;;;;;;;;;;;;;31.47;55.01;100954.31;4975824;27;66804;-36
2021/11/03 12:48:23;;;;;;;;;;;;;;;31.38;54.16;100953.78;4980087;27;69006;-37
2021/11/03 12:50:55;;;;;;;;;;;;;;;31.34;54.72;100959.81;4979776;27;66664;-37
2021/11/03 12:53:35;;;;;;;;;;;;;;;31.35;53.77;100954.19;4981661;27;70081;-37
2021/11/03 12:56:23;;;;;;;;;;;;;;;31.30;53.01;100961.31;4990104;27;65506;-37
2021/11/03 12:59:21;;;;;;;;;;;;;;;31.19;53.31;100964.75;4980807;27;69678;-37
2021/11/03 13:02:03;;;;;;;;;;;;;;;31.09;55.05;100965.22;4979229;27;66778;-36
2021/11/03 13:04:44;;;;;;;;;;;;;;;30.75;55.45;100966.47;4978779;27;70086;-37
2021/11/03 13:07:30;;;;;;;;;;;;;;;30.72;56.26;100976.69;4989108;27;66526;-37
2021/11/03 13:10:10;;;;;;;;;;;;;;;30.72;55.13;100982.09;4989760;27;70284;-36
2021/11/03 13:13:04;;;;;;;;;;;;;;;30.75;54.75;100985.44;4988442;27;65634;-36
2021/11/03 13:15:53;;;;;;;;;;;;;;;30.70;54.19;100997.75;4991379;27;69230;-37
2021/11/03 13:18:27;;;;;;;;;;;;;;;30.68;54.53;101005.25;4997164;27;66614;-37
2021/11/03 13:21:18;;;;;;;;;;;;;;;30.71;55.47;101007.53;4981302;27;69132;-37
2021/11/03 13:23:51;;;;;;;;;;;;;;;30.86;54.97;101014.56;5083033;27;64900;-37
2021/11/03 13:26:27;;;;;;;;;;;;;;;30.98;54.87;101014.69;4983118;27;68986;-36
2021/11/03 13:29:22;;;;;;;;;;;;;;;30.99;54.64;101019.91;4993910;27;66436;-37
2021/11/03 13:32:03;;;;;;;;;;;;;;;31.01;54.55;101015.13;4973946;27;70750;-38
2021/11/03 13:34:50;;;;;;;;;;;;;;;31.00;55.67;101026.16;4997777;27;65561;-37
2021/11/03 13:37:42;;;;;;;;;;;;;;;31.03;56.73;101026.53;4986403;27;69319;-36
2021/11/03 13:40:14;;;;;;;;;;;;;;;31.09;56.96;101036.53;4983270;27;66714;-37
2021/11/03 13:43:05;;;;;;;;;;;;;;;31.09;57.31;101036.53;5080486;27;69393;-36
2021/11/03 13:45:57;;;;;;;;;;;;;;;31.09;57.12;101032.97;4985554;27;66663;-37
2021/11/03 13:48:39;;;;;;;;;;;;;;;31.14;56.34;101041.28;4982342;27;69288;-36
2021/11/03 13:51:23;;;;;;;;;;;;;;;31.05;57.09;101038.00;4973523;27;65675;-36
2021/11/03 13:54:44;;;;;;;;;;;;;;;31.03;56.37;101040.09;4980494;27;70208;-36
2021/11/03 13:57:36;;;;;;;;;;;;;;;31.07;55.98;101044.03;4988030;27;66337;-36